createdAt,value
2023-05-10T00:01:26.447Z,6
2023-05-10T00:30:36.908Z,7
2023-05-10T00:59:50.444Z,6
2023-05-10T01:29:06.388Z,4
2023-05-10T01:58:21.836Z,5
2023-05-10T02:27:45.674Z,4
2023-05-10T02:57:09.673Z,5
2023-05-10T03:26:31.685Z,6
2023-05-10T03:55:50.826Z,7
2023-05-10T04:25:14.964Z,6
2023-05-10T04:54:30.269Z,6
2023-05-10T05:23:43.376Z,7
2023-05-10T05:53:04.625Z,9
2023-05-10T06:22:28.002Z,8
2023-05-10T06:51:48.679Z,6
2023-05-10T07:21:12.565Z,8
2023-05-10T07:50:23.822Z,8
2023-05-10T08:19:34.752Z,7
2023-05-10T08:48:47.715Z,5
2023-05-10T09:18:01.461Z,5
2023-05-10T09:47:11.197Z,3
2023-05-10T10:16:26.634Z,6
2023-05-10T10:45:27.502Z,3
2023-05-10T11:14:40.069Z,4
2023-05-10T11:44:04.854Z,3
2023-05-10T12:13:10.716Z,3
2023-05-10T12:42:21.683Z,4
2023-05-10T13:11:25.598Z,3
2023-05-10T13:40:30.780Z,4
2023-05-10T14:09:56.674Z,3
2023-05-10T14:39:20.331Z,3
2023-05-10T15:08:43.444Z,3
2023-05-10T15:38:01.919Z,3
2023-05-10T16:07:25.009Z,3
2023-05-10T16:36:42.840Z,3
2023-05-10T17:06:03.541Z,3
2023-05-10T17:35:20.498Z,3
2023-05-10T18:04:30.638Z,1
2023-05-10T18:33:45.657Z,4
2023-05-10T19:03:00.523Z,4
2023-05-10T19:32:11.723Z,3
2023-05-10T20:01:31.052Z,3
2023-05-10T20:30:40.922Z,3
2023-05-10T20:59:53.725Z,3
2023-05-10T21:28:59.459Z,4
2023-05-10T21:58:13.839Z,4
2023-05-10T22:27:28.094Z,3
2023-05-10T22:56:41.321Z,3
2023-05-10T23:26:00.569Z,3
2023-05-10T23:55:21.190Z,4
